<?xml version="1.0" encoding="UTF-8" standalone="no" ?>
<gpx xmlns="http://www.topografix.com/GPX/1/1" xmlns:xsi="http://www.w3.org/2001/XMLSchema-instance" xsi:schemaLocation="http://www.topografix.com/GPX/1/1 http://www.topografix.com/GPX/1/1/gpx.xsd" version="1.1" creator="VisuGPX - https://www.visugpx.com">
  <metadata>
    <name>Lagginhorn</name>
    <desc><![CDATA[alpi avec Engue]]></desc>
  </metadata>
  <trk>
    <name><![CDATA[ACTIVE LOG 003]]></name>
    <trkseg>
      <trkpt lat="46.14348" lon="7.97799">
        <ele>2836.5073242</ele>
        <time>2010-09-28T12:35:32Z</time>
      </trkpt>
      <trkpt lat="46.14402" lon="7.97809">
        <ele>2748.546875</ele>
        <time>2010-09-28T12:36:08Z</time>
      </trkpt>
      <trkpt lat="46.14414" lon="7.97877">
        <ele>2757.1982422</ele>
        <time>2010-09-28T12:37:39Z</time>
      </trkpt>
      <trkpt lat="46.14414" lon="7.97877">
        <ele>2760.0825195</ele>
        <time>2010-09-28T12:38:05Z</time>
      </trkpt>
      <trkpt lat="46.14463" lon="7.97876">
        <ele>2760.5629883</ele>
        <time>2010-09-28T12:38:08Z</time>
      </trkpt>
      <trkpt lat="46.14463" lon="7.97876">
        <ele>2765.8500977</ele>
        <time>2010-09-28T12:38:51Z</time>
      </trkpt>
      <trkpt lat="46.14408" lon="7.9799">
        <ele>2767.2919922</ele>
        <time>2010-09-28T12:39:03Z</time>
      </trkpt>
      <trkpt lat="46.14408" lon="7.9799">
        <ele>2776.9057617</ele>
        <time>2010-09-28T12:40:14Z</time>
      </trkpt>
      <trkpt lat="46.14479" lon="7.98011">
        <ele>2779.309082</ele>
        <time>2010-09-28T12:40:33Z</time>
      </trkpt>
      <trkpt lat="46.14524" lon="7.98012">
        <ele>2783.6347656</ele>
        <time>2010-09-28T12:41:25Z</time>
      </trkpt>
      <trkpt lat="46.14524" lon="7.98012">
        <ele>2785.5576172</ele>
        <time>2010-09-28T12:41:42Z</time>
      </trkpt>
      <trkpt lat="46.14556" lon="7.98028">
        <ele>2787.4799805</ele>
        <time>2010-09-28T12:42:02Z</time>
      </trkpt>
      <trkpt lat="46.14644" lon="7.98019">
        <ele>2811.0322266</ele>
        <time>2010-09-28T12:45:22Z</time>
      </trkpt>
      <trkpt lat="46.14674" lon="7.98035">
        <ele>2811.5131836</ele>
        <time>2010-09-28T12:45:25Z</time>
      </trkpt>
      <trkpt lat="46.14666" lon="7.98034">
        <ele>2816.800293</ele>
        <time>2010-09-28T12:46:13Z</time>
      </trkpt>
      <trkpt lat="46.14658" lon="7.98009">
        <ele>2817.2807617</ele>
        <time>2010-09-28T12:46:19Z</time>
      </trkpt>
      <trkpt lat="46.14671" lon="7.98068">
        <ele>2820.6455078</ele>
        <time>2010-09-28T12:46:48Z</time>
      </trkpt>
      <trkpt lat="46.14665" lon="7.98095">
        <ele>2821.6069336</ele>
        <time>2010-09-28T12:46:54Z</time>
      </trkpt>
      <trkpt lat="46.14705" lon="7.98197">
        <ele>2864.8657227</ele>
        <time>2010-09-28T12:52:16Z</time>
      </trkpt>
      <trkpt lat="46.14738" lon="7.98322">
        <ele>2867.75</ele>
        <time>2010-09-28T12:52:35Z</time>
      </trkpt>
      <trkpt lat="46.14738" lon="7.98322">
        <ele>2892.7441406</ele>
        <time>2010-09-28T12:55:23Z</time>
      </trkpt>
      <trkpt lat="46.14743" lon="7.98452">
        <ele>2894.6669922</ele>
        <time>2010-09-28T12:55:43Z</time>
      </trkpt>
      <trkpt lat="46.14743" lon="7.98452">
        <ele>2897.0698242</ele>
        <time>2010-09-28T12:56:00Z</time>
      </trkpt>
      <trkpt lat="46.14743" lon="7.98491">
        <ele>2898.9926758</ele>
        <time>2010-09-28T12:56:12Z</time>
      </trkpt>
      <trkpt lat="46.14744" lon="7.98517">
        <ele>2905.722168</ele>
        <time>2010-09-28T12:57:00Z</time>
      </trkpt>
      <trkpt lat="46.14747" lon="7.98545">
        <ele>2907.1640625</ele>
        <time>2010-09-28T12:57:12Z</time>
      </trkpt>
      <trkpt lat="46.14747" lon="7.98545">
        <ele>2932.6391602</ele>
        <time>2010-09-28T13:00:39Z</time>
      </trkpt>
      <trkpt lat="46.14744" lon="7.98655">
        <ele>2934.0810547</ele>
        <time>2010-09-28T13:00:50Z</time>
      </trkpt>
      <trkpt lat="46.14744" lon="7.98655">
        <ele>2943.2133789</ele>
        <time>2010-09-28T13:02:09Z</time>
      </trkpt>
      <trkpt lat="46.14741" lon="7.98699">
        <ele>2944.1748047</ele>
        <time>2010-09-28T13:02:52Z</time>
      </trkpt>
      <trkpt lat="46.14741" lon="7.98699">
        <ele>2993.6826172</ele>
        <time>2010-09-28T13:09:06Z</time>
      </trkpt>
      <trkpt lat="46.14766" lon="7.98828">
        <ele>3041.2680664</ele>
        <time>2010-09-28T13:14:48Z</time>
      </trkpt>
      <trkpt lat="46.14809" lon="7.98944">
        <ele>3060.4946289</ele>
        <time>2010-09-28T13:18:39Z</time>
      </trkpt>
      <trkpt lat="46.14835" lon="7.99045">
        <ele>3062.8979492</ele>
        <time>2010-09-28T13:18:56Z</time>
      </trkpt>
      <trkpt lat="46.14835" lon="7.99045">
        <ele>3090.7758789</ele>
        <time>2010-09-28T13:24:49Z</time>
      </trkpt>
      <trkpt lat="46.14923" lon="7.99144">
        <ele>3093.6601563</ele>
        <time>2010-09-28T13:25:06Z</time>
      </trkpt>
      <trkpt lat="46.14965" lon="7.99243">
        <ele>3118.6538086</ele>
        <time>2010-09-28T13:28:56Z</time>
      </trkpt>
      <trkpt lat="46.14998" lon="7.99289">
        <ele>3138.3613281</ele>
        <time>2010-09-28T13:31:17Z</time>
      </trkpt>
      <trkpt lat="46.15007" lon="7.99308">
        <ele>3142.6870117</ele>
        <time>2010-09-28T13:31:57Z</time>
      </trkpt>
      <trkpt lat="46.15032" lon="7.9933">
        <ele>3156.1459961</ele>
        <time>2010-09-28T13:33:38Z</time>
      </trkpt>
      <trkpt lat="46.15076" lon="7.99375">
        <ele>3172.487793</ele>
        <time>2010-09-28T13:35:56Z</time>
      </trkpt>
      <trkpt lat="46.15084" lon="7.99371">
        <ele>3173.9296875</ele>
        <time>2010-09-28T13:36:14Z</time>
      </trkpt>
      <trkpt lat="46.15147" lon="7.99436">
        <ele>3203.25</ele>
        <time>2010-09-28T13:40:10Z</time>
      </trkpt>
      <trkpt lat="46.15177" lon="7.99468">
        <ele>3214.7856445</ele>
        <time>2010-09-28T13:42:00Z</time>
      </trkpt>
      <trkpt lat="46.15199" lon="7.99468">
        <ele>3225.3608398</ele>
        <time>2010-09-28T13:45:05Z</time>
      </trkpt>
      <trkpt lat="46.15169" lon="7.99469">
        <ele>3216.2280273</ele>
        <time>2010-09-28T13:45:45Z</time>
      </trkpt>
      <trkpt lat="46.15137" lon="7.99434">
        <ele>3205.1728516</ele>
        <time>2010-09-28T13:46:59Z</time>
      </trkpt>
      <trkpt lat="46.15116" lon="7.99416">
        <ele>3195.5595703</ele>
        <time>2010-09-28T13:47:26Z</time>
      </trkpt>
      <trkpt lat="46.15097" lon="7.99386">
        <ele>3186.4267578</ele>
        <time>2010-09-28T13:47:58Z</time>
      </trkpt>
      <trkpt lat="46.15009" lon="7.99325">
        <ele>3154.2226563</ele>
        <time>2010-09-28T13:50:43Z</time>
      </trkpt>
      <trkpt lat="46.14989" lon="7.99304">
        <ele>3145.090332</ele>
        <time>2010-09-28T13:51:18Z</time>
      </trkpt>
      <trkpt lat="46.14934" lon="7.99209">
        <ele>3110.0024414</ele>
        <time>2010-09-28T13:53:34Z</time>
      </trkpt>
      <trkpt lat="46.14912" lon="7.99142">
        <ele>3096.5439453</ele>
        <time>2010-09-28T13:55:01Z</time>
      </trkpt>
      <trkpt lat="46.14866" lon="7.99015">
        <ele>3060.4946289</ele>
        <time>2010-09-28T13:58:07Z</time>
      </trkpt>
      <trkpt lat="46.14858" lon="7.99027">
        <ele>3058.5712891</ele>
        <time>2010-09-28T13:58:24Z</time>
      </trkpt>
      <trkpt lat="46.14853" lon="7.99031">
        <ele>3054.7265625</ele>
        <time>2010-09-28T13:58:40Z</time>
      </trkpt>
      <trkpt lat="46.14846" lon="7.99021">
        <ele>3056.6489258</ele>
        <time>2010-09-28T13:58:52Z</time>
      </trkpt>
      <trkpt lat="46.14846" lon="7.99011">
        <ele>3055.2070313</ele>
        <time>2010-09-28T13:59:08Z</time>
      </trkpt>
      <trkpt lat="46.14818" lon="7.98978">
        <ele>3053.2841797</ele>
        <time>2010-09-28T14:00:25Z</time>
      </trkpt>
      <trkpt lat="46.14785" lon="7.98886">
        <ele>3034.0581055</ele>
        <time>2010-09-28T14:02:53Z</time>
      </trkpt>
      <trkpt lat="46.14777" lon="7.98867">
        <ele>3023.4833984</ele>
        <time>2010-09-28T14:03:49Z</time>
      </trkpt>
      <trkpt lat="46.14763" lon="7.98856">
        <ele>3012.4282227</ele>
        <time>2010-09-28T14:04:38Z</time>
      </trkpt>
      <trkpt lat="46.14759" lon="7.98797">
        <ele>2987.9145508</ele>
        <time>2010-09-28T14:06:21Z</time>
      </trkpt>
      <trkpt lat="46.14739" lon="7.98785">
        <ele>2972.0532227</ele>
        <time>2010-09-28T14:07:35Z</time>
      </trkpt>
      <trkpt lat="46.14735" lon="7.9876">
        <ele>2960.0366211</ele>
        <time>2010-09-28T14:08:24Z</time>
      </trkpt>
      <trkpt lat="46.14745" lon="7.98694">
        <ele>2943.6943359</ele>
        <time>2010-09-28T14:09:28Z</time>
      </trkpt>
      <trkpt lat="46.14751" lon="7.9857">
        <ele>2908.1254883</ele>
        <time>2010-09-28T14:12:06Z</time>
      </trkpt>
      <trkpt lat="46.14737" lon="7.98381">
        <ele>2874.9599609</ele>
        <time>2010-09-28T14:14:41Z</time>
      </trkpt>
      <trkpt lat="46.14731" lon="7.98337">
        <ele>2864.8657227</ele>
        <time>2010-09-28T14:15:17Z</time>
      </trkpt>
      <trkpt lat="46.14732" lon="7.9826">
        <ele>2845.1591797</ele>
        <time>2010-09-28T14:16:19Z</time>
      </trkpt>
      <trkpt lat="46.14732" lon="7.98243">
        <ele>2839.8720703</ele>
        <time>2010-09-28T14:16:34Z</time>
      </trkpt>
      <trkpt lat="46.14729" lon="7.98226">
        <ele>2836.9882813</ele>
        <time>2010-09-28T14:16:45Z</time>
      </trkpt>
      <trkpt lat="46.14703" lon="7.98218">
        <ele>2832.6616211</ele>
        <time>2010-09-28T14:17:11Z</time>
      </trkpt>
      <trkpt lat="46.14702" lon="7.98204">
        <ele>2832.6616211</ele>
        <time>2010-09-28T14:17:37Z</time>
      </trkpt>
      <trkpt lat="46.14677" lon="7.98123">
        <ele>2821.1259766</ele>
        <time>2010-09-28T14:18:49Z</time>
      </trkpt>
      <trkpt lat="46.1468" lon="7.98057">
        <ele>2811.9936523</ele>
        <time>2010-09-28T14:19:40Z</time>
      </trkpt>
      <trkpt lat="46.14664" lon="7.98035">
        <ele>2805.2646484</ele>
        <time>2010-09-28T14:20:07Z</time>
      </trkpt>
      <trkpt lat="46.14642" lon="7.9804">
        <ele>2798.5351563</ele>
        <time>2010-09-28T14:20:33Z</time>
      </trkpt>
      <trkpt lat="46.14652" lon="7.98018">
        <ele>2794.6899414</ele>
        <time>2010-09-28T14:20:49Z</time>
      </trkpt>
      <trkpt lat="46.1458" lon="7.98033">
        <ele>2784.1152344</ele>
        <time>2010-09-28T14:21:48Z</time>
      </trkpt>
      <trkpt lat="46.14464" lon="7.98003">
        <ele>2772.0991211</ele>
        <time>2010-09-28T14:23:29Z</time>
      </trkpt>
      <trkpt lat="46.14425" lon="7.97963">
        <ele>2760.5629883</ele>
        <time>2010-09-28T14:24:13Z</time>
      </trkpt>
      <trkpt lat="46.14414" lon="7.97927">
        <ele>2756.7177734</ele>
        <time>2010-09-28T14:24:33Z</time>
      </trkpt>
      <trkpt lat="46.14412" lon="7.97927">
        <ele>2756.2373047</ele>
        <time>2010-09-28T14:24:36Z</time>
      </trkpt>
      <trkpt lat="46.144" lon="7.97834">
        <ele>2742.2983398</ele>
        <time>2010-09-28T14:25:54Z</time>
      </trkpt>
      <trkpt lat="46.14401" lon="7.97817">
        <ele>2738.4526367</ele>
        <time>2010-09-28T14:26:10Z</time>
      </trkpt>
      <trkpt lat="46.14377" lon="7.978">
        <ele>2731.7236328</ele>
        <time>2010-09-28T14:26:57Z</time>
      </trkpt>
      <trkpt lat="46.14388" lon="7.97793">
        <ele>2730.762207</ele>
        <time>2010-09-28T14:27:12Z</time>
      </trkpt>
      <trkpt lat="46.14372" lon="7.97785">
        <ele>2726.4360352</ele>
        <time>2010-09-28T14:27:47Z</time>
      </trkpt>
      <trkpt lat="46.14385" lon="7.97786">
        <ele>2730.762207</ele>
        <time>2010-09-28T14:29:13Z</time>
      </trkpt>
      <trkpt lat="46.14383" lon="7.978">
        <ele>2732.2041016</ele>
        <time>2010-09-28T14:29:30Z</time>
      </trkpt>
      <trkpt lat="46.14378" lon="7.97782">
        <ele>2732.2041016</ele>
        <time>2010-09-29T04:07:31Z</time>
      </trkpt>
      <trkpt lat="46.14378" lon="7.97782">
        <ele>2732.6845703</ele>
        <time>2010-09-29T04:07:35Z</time>
      </trkpt>
      <trkpt lat="46.14381" lon="7.97768">
        <ele>2732.2041016</ele>
        <time>2010-09-29T04:09:23Z</time>
      </trkpt>
      <trkpt lat="46.14393" lon="7.9779">
        <ele>2731.7236328</ele>
        <time>2010-09-29T04:09:41Z</time>
      </trkpt>
      <trkpt lat="46.14382" lon="7.97756">
        <ele>2733.1655273</ele>
        <time>2010-09-29T04:10:05Z</time>
      </trkpt>
      <trkpt lat="46.14387" lon="7.97804">
        <ele>2739.4140625</ele>
        <time>2010-09-29T04:11:16Z</time>
      </trkpt>
      <trkpt lat="46.14407" lon="7.97808">
        <ele>2743.2592773</ele>
        <time>2010-09-29T04:11:48Z</time>
      </trkpt>
      <trkpt lat="46.14413" lon="7.97867">
        <ele>2754.3144531</ele>
        <time>2010-09-29T04:13:08Z</time>
      </trkpt>
      <trkpt lat="46.14432" lon="7.97962">
        <ele>2766.3305664</ele>
        <time>2010-09-29T04:14:44Z</time>
      </trkpt>
      <trkpt lat="46.14473" lon="7.98013">
        <ele>2778.3476563</ele>
        <time>2010-09-29T04:16:04Z</time>
      </trkpt>
      <trkpt lat="46.14593" lon="7.98039">
        <ele>2789.8833008</ele>
        <time>2010-09-29T04:18:27Z</time>
      </trkpt>
      <trkpt lat="46.14662" lon="7.98022">
        <ele>2800.4575195</ele>
        <time>2010-09-29T04:19:58Z</time>
      </trkpt>
      <trkpt lat="46.14664" lon="7.98029">
        <ele>2806.2260742</ele>
        <time>2010-09-29T04:20:33Z</time>
      </trkpt>
      <trkpt lat="46.14679" lon="7.9804">
        <ele>2811.9936523</ele>
        <time>2010-09-29T04:21:20Z</time>
      </trkpt>
      <trkpt lat="46.14683" lon="7.9807">
        <ele>2818.2421875</ele>
        <time>2010-09-29T04:22:09Z</time>
      </trkpt>
      <trkpt lat="46.14691" lon="7.98114">
        <ele>2821.6069336</ele>
        <time>2010-09-29T04:22:51Z</time>
      </trkpt>
      <trkpt lat="46.14712" lon="7.98156">
        <ele>2828.3359375</ele>
        <time>2010-09-29T04:24:13Z</time>
      </trkpt>
      <trkpt lat="46.14714" lon="7.98225">
        <ele>2835.5454102</ele>
        <time>2010-09-29T04:25:21Z</time>
      </trkpt>
      <trkpt lat="46.14741" lon="7.98235">
        <ele>2840.8334961</ele>
        <time>2010-09-29T04:26:08Z</time>
      </trkpt>
      <trkpt lat="46.14749" lon="7.98397">
        <ele>2876.8828125</ele>
        <time>2010-09-29T04:30:33Z</time>
      </trkpt>
      <trkpt lat="46.14747" lon="7.98543">
        <ele>2899.4731445</ele>
        <time>2010-09-29T04:33:30Z</time>
      </trkpt>
      <trkpt lat="46.14753" lon="7.98586">
        <ele>2908.6064453</ele>
        <time>2010-09-29T04:34:51Z</time>
      </trkpt>
      <trkpt lat="46.14749" lon="7.9864">
        <ele>2922.5449219</ele>
        <time>2010-09-29T04:37:02Z</time>
      </trkpt>
      <trkpt lat="46.14754" lon="7.98661">
        <ele>2928.793457</ele>
        <time>2010-09-29T04:37:49Z</time>
      </trkpt>
      <trkpt lat="46.1475" lon="7.98709">
        <ele>2945.1362305</ele>
        <time>2010-09-29T04:39:49Z</time>
      </trkpt>
      <trkpt lat="46.14741" lon="7.98758">
        <ele>2956.671875</ele>
        <time>2010-09-29T04:41:54Z</time>
      </trkpt>
      <trkpt lat="46.14768" lon="7.98822">
        <ele>2992.2407227</ele>
        <time>2010-09-29T04:46:23Z</time>
      </trkpt>
      <trkpt lat="46.1476" lon="7.98866">
        <ele>3007.6220703</ele>
        <time>2010-09-29T04:48:20Z</time>
      </trkpt>
      <trkpt lat="46.14788" lon="7.98886">
        <ele>3032.1357422</ele>
        <time>2010-09-29T04:51:07Z</time>
      </trkpt>
      <trkpt lat="46.14801" lon="7.98958">
        <ele>3042.2294922</ele>
        <time>2010-09-29T04:54:38Z</time>
      </trkpt>
      <trkpt lat="46.14818" lon="7.98976">
        <ele>3047.9970703</ele>
        <time>2010-09-29T04:55:28Z</time>
      </trkpt>
      <trkpt lat="46.14846" lon="7.99008">
        <ele>3049.9199219</ele>
        <time>2010-09-29T04:56:37Z</time>
      </trkpt>
      <trkpt lat="46.1485" lon="7.9903">
        <ele>3052.8037109</ele>
        <time>2010-09-29T04:57:12Z</time>
      </trkpt>
      <trkpt lat="46.14874" lon="7.99025">
        <ele>3057.6103516</ele>
        <time>2010-09-29T04:58:21Z</time>
      </trkpt>
      <trkpt lat="46.14914" lon="7.99169">
        <ele>3091.7368164</ele>
        <time>2010-09-29T05:03:51Z</time>
      </trkpt>
      <trkpt lat="46.14937" lon="7.9919">
        <ele>3097.0244141</ele>
        <time>2010-09-29T05:04:40Z</time>
      </trkpt>
      <trkpt lat="46.14953" lon="7.99247">
        <ele>3111.9248047</ele>
        <time>2010-09-29T05:06:48Z</time>
      </trkpt>
      <trkpt lat="46.14975" lon="7.99275">
        <ele>3119.1347656</ele>
        <time>2010-09-29T05:07:55Z</time>
      </trkpt>
      <trkpt lat="46.14968" lon="7.99296">
        <ele>3122.4990234</ele>
        <time>2010-09-29T05:08:28Z</time>
      </trkpt>
      <trkpt lat="46.14988" lon="7.99296">
        <ele>3128.2675781</ele>
        <time>2010-09-29T05:09:35Z</time>
      </trkpt>
      <trkpt lat="46.15013" lon="7.99334">
        <ele>3141.2451172</ele>
        <time>2010-09-29T05:11:28Z</time>
      </trkpt>
      <trkpt lat="46.15024" lon="7.99333">
        <ele>3145.090332</ele>
        <time>2010-09-29T05:12:05Z</time>
      </trkpt>
      <trkpt lat="46.15169" lon="7.99458">
        <ele>3201.8081055</ele>
        <time>2010-09-29T05:38:13Z</time>
      </trkpt>
      <trkpt lat="46.15182" lon="7.99467">
        <ele>3204.2114258</ele>
        <time>2010-09-29T05:38:38Z</time>
      </trkpt>
      <trkpt lat="46.15209" lon="7.99458">
        <ele>3210.4599609</ele>
        <time>2010-09-29T05:39:26Z</time>
      </trkpt>
      <trkpt lat="46.15231" lon="7.99501">
        <ele>3230.1669922</ele>
        <time>2010-09-29T05:41:42Z</time>
      </trkpt>
      <trkpt lat="46.15287" lon="7.99532">
        <ele>3252.277832</ele>
        <time>2010-09-29T05:44:38Z</time>
      </trkpt>
      <trkpt lat="46.15294" lon="7.99562">
        <ele>3258.5258789</ele>
        <time>2010-09-29T05:45:16Z</time>
      </trkpt>
      <trkpt lat="46.15334" lon="7.99565">
        <ele>3274.3876953</ele>
        <time>2010-09-29T05:47:39Z</time>
      </trkpt>
      <trkpt lat="46.15342" lon="7.99571">
        <ele>3276.3100586</ele>
        <time>2010-09-29T05:47:53Z</time>
      </trkpt>
      <trkpt lat="46.1538" lon="7.99559">
        <ele>3293.6142578</ele>
        <time>2010-09-29T05:50:03Z</time>
      </trkpt>
      <trkpt lat="46.15399" lon="7.99574">
        <ele>3297.4594727</ele>
        <time>2010-09-29T05:50:28Z</time>
      </trkpt>
      <trkpt lat="46.1542" lon="7.99521">
        <ele>3319.0893555</ele>
        <time>2010-09-29T05:55:23Z</time>
      </trkpt>
      <trkpt lat="46.15445" lon="7.99525">
        <ele>3328.2216797</ele>
        <time>2010-09-29T05:56:51Z</time>
      </trkpt>
      <trkpt lat="46.15439" lon="7.99511">
        <ele>3330.144043</ele>
        <time>2010-09-29T05:57:28Z</time>
      </trkpt>
      <trkpt lat="46.15469" lon="7.99501">
        <ele>3334.4702148</ele>
        <time>2010-09-29T05:58:10Z</time>
      </trkpt>
      <trkpt lat="46.15409" lon="7.99448">
        <ele>3343.6025391</ele>
        <time>2010-09-29T06:00:06Z</time>
      </trkpt>
      <trkpt lat="46.15376" lon="7.99386">
        <ele>3352.2548828</ele>
        <time>2010-09-29T06:01:23Z</time>
      </trkpt>
      <trkpt lat="46.15396" lon="7.99345">
        <ele>3371.9614258</ele>
        <time>2010-09-29T06:17:42Z</time>
      </trkpt>
      <trkpt lat="46.15422" lon="7.99336">
        <ele>3391.1879883</ele>
        <time>2010-09-29T06:19:56Z</time>
      </trkpt>
      <trkpt lat="46.15442" lon="7.99329">
        <ele>3401.762207</ele>
        <time>2010-09-29T06:21:24Z</time>
      </trkpt>
      <trkpt lat="46.15474" lon="7.99264">
        <ele>3422.4306641</ele>
        <time>2010-09-29T06:24:21Z</time>
      </trkpt>
      <trkpt lat="46.15496" lon="7.99282">
        <ele>3441.1762695</ele>
        <time>2010-09-29T06:31:29Z</time>
      </trkpt>
      <trkpt lat="46.15499" lon="7.99283">
        <ele>3441.6567383</ele>
        <time>2010-09-29T06:31:51Z</time>
      </trkpt>
      <trkpt lat="46.15498" lon="7.993">
        <ele>3454.6352539</ele>
        <time>2010-09-29T06:34:08Z</time>
      </trkpt>
      <trkpt lat="46.15525" lon="7.99329">
        <ele>3480.5908203</ele>
        <time>2010-09-29T06:43:10Z</time>
      </trkpt>
      <trkpt lat="46.1553" lon="7.99336">
        <ele>3483.9550781</ele>
        <time>2010-09-29T06:44:04Z</time>
      </trkpt>
      <trkpt lat="46.15546" lon="7.99352">
        <ele>3487.3198242</ele>
        <time>2010-09-29T06:45:26Z</time>
      </trkpt>
      <trkpt lat="46.15546" lon="7.99353">
        <ele>3489.7231445</ele>
        <time>2010-09-29T06:45:35Z</time>
      </trkpt>
      <trkpt lat="46.15548" lon="7.9936">
        <ele>3491.1650391</ele>
        <time>2010-09-29T06:46:04Z</time>
      </trkpt>
      <trkpt lat="46.1555" lon="7.99372">
        <ele>3491.6455078</ele>
        <time>2010-09-29T06:46:38Z</time>
      </trkpt>
      <trkpt lat="46.15552" lon="7.99377">
        <ele>3494.5297852</ele>
        <time>2010-09-29T06:46:56Z</time>
      </trkpt>
      <trkpt lat="46.15568" lon="7.99397">
        <ele>3503.1811523</ele>
        <time>2010-09-29T06:47:54Z</time>
      </trkpt>
      <trkpt lat="46.15565" lon="7.99411">
        <ele>3512.7949219</ele>
        <time>2010-09-29T06:49:20Z</time>
      </trkpt>
      <trkpt lat="46.15568" lon="7.99415">
        <ele>3517.1206055</ele>
        <time>2010-09-29T06:49:56Z</time>
      </trkpt>
      <trkpt lat="46.15578" lon="7.99436">
        <ele>3523.3691406</ele>
        <time>2010-09-29T06:51:17Z</time>
      </trkpt>
      <trkpt lat="46.15584" lon="7.9944">
        <ele>3520.0043945</ele>
        <time>2010-09-29T06:51:41Z</time>
      </trkpt>
      <trkpt lat="46.15584" lon="7.99441">
        <ele>3523.3691406</ele>
        <time>2010-09-29T06:51:42Z</time>
      </trkpt>
      <trkpt lat="46.15584" lon="7.99445">
        <ele>3522.8886719</ele>
        <time>2010-09-29T06:52:08Z</time>
      </trkpt>
      <trkpt lat="46.15583" lon="7.99447">
        <ele>3522.8886719</ele>
        <time>2010-09-29T06:52:22Z</time>
      </trkpt>
      <trkpt lat="46.15583" lon="7.99448">
        <ele>3526.7338867</ele>
        <time>2010-09-29T06:53:27Z</time>
      </trkpt>
      <trkpt lat="46.15586" lon="7.99449">
        <ele>3527.2143555</ele>
        <time>2010-09-29T06:54:13Z</time>
      </trkpt>
      <trkpt lat="46.15584" lon="7.99453">
        <ele>3528.65625</ele>
        <time>2010-09-29T06:54:41Z</time>
      </trkpt>
      <trkpt lat="46.15591" lon="7.99467">
        <ele>3536.3466797</ele>
        <time>2010-09-29T06:55:40Z</time>
      </trkpt>
      <trkpt lat="46.15606" lon="7.99481">
        <ele>3548.8442383</ele>
        <time>2010-09-29T06:57:43Z</time>
      </trkpt>
      <trkpt lat="46.15606" lon="7.99494">
        <ele>3556.0541992</ele>
        <time>2010-09-29T06:58:48Z</time>
      </trkpt>
      <trkpt lat="46.15616" lon="7.99518">
        <ele>3566.1474609</ele>
        <time>2010-09-29T07:00:22Z</time>
      </trkpt>
      <trkpt lat="46.15621" lon="7.9953">
        <ele>3569.0317383</ele>
        <time>2010-09-29T07:01:27Z</time>
      </trkpt>
      <trkpt lat="46.15632" lon="7.99598">
        <ele>3601.2358398</ele>
        <time>2010-09-29T07:14:51Z</time>
      </trkpt>
      <trkpt lat="46.1563" lon="7.99613">
        <ele>3602.1972656</ele>
        <time>2010-09-29T07:15:08Z</time>
      </trkpt>
      <trkpt lat="46.1565" lon="7.99648">
        <ele>3621.9042969</ele>
        <time>2010-09-29T07:18:05Z</time>
      </trkpt>
      <trkpt lat="46.15652" lon="7.99673">
        <ele>3622.8657227</ele>
        <time>2010-09-29T07:18:50Z</time>
      </trkpt>
      <trkpt lat="46.15661" lon="7.99686">
        <ele>3620.9428711</ele>
        <time>2010-09-29T07:20:08Z</time>
      </trkpt>
      <trkpt lat="46.15661" lon="7.99719">
        <ele>3643.0532227</ele>
        <time>2010-09-29T07:32:42Z</time>
      </trkpt>
      <trkpt lat="46.15656" lon="7.99809">
        <ele>3681.0253906</ele>
        <time>2010-09-29T07:38:57Z</time>
      </trkpt>
      <trkpt lat="46.15659" lon="7.99814">
        <ele>3686.793457</ele>
        <time>2010-09-29T07:39:38Z</time>
      </trkpt>
      <trkpt lat="46.1568" lon="7.9984">
        <ele>3706.5004883</ele>
        <time>2010-09-29T07:42:58Z</time>
      </trkpt>
      <trkpt lat="46.15682" lon="7.99847">
        <ele>3709.3842773</ele>
        <time>2010-09-29T07:43:26Z</time>
      </trkpt>
      <trkpt lat="46.15682" lon="7.99847">
        <ele>3706.0200195</ele>
        <time>2010-09-29T07:43:33Z</time>
      </trkpt>
      <trkpt lat="46.15682" lon="7.99847">
        <ele>3710.8261719</ele>
        <time>2010-09-29T07:43:34Z</time>
      </trkpt>
      <trkpt lat="46.15683" lon="7.9985">
        <ele>3711.7875977</ele>
        <time>2010-09-29T07:43:54Z</time>
      </trkpt>
      <trkpt lat="46.15682" lon="7.99859">
        <ele>3719.9584961</ele>
        <time>2010-09-29T07:45:17Z</time>
      </trkpt>
      <trkpt lat="46.15683" lon="7.9987">
        <ele>3724.7651367</ele>
        <time>2010-09-29T07:46:01Z</time>
      </trkpt>
      <trkpt lat="46.15687" lon="7.99879">
        <ele>3726.6879883</ele>
        <time>2010-09-29T07:46:20Z</time>
      </trkpt>
      <trkpt lat="46.15681" lon="7.99883">
        <ele>3730.5332031</ele>
        <time>2010-09-29T07:47:11Z</time>
      </trkpt>
      <trkpt lat="46.15701" lon="7.99892">
        <ele>3752.1630859</ele>
        <time>2010-09-29T07:51:07Z</time>
      </trkpt>
      <trkpt lat="46.15706" lon="7.99907">
        <ele>3758.4111328</ele>
        <time>2010-09-29T07:52:58Z</time>
      </trkpt>
      <trkpt lat="46.15704" lon="7.9991">
        <ele>3762.2568359</ele>
        <time>2010-09-29T07:53:50Z</time>
      </trkpt>
      <trkpt lat="46.15708" lon="7.99923">
        <ele>3767.0634766</ele>
        <time>2010-09-29T07:54:46Z</time>
      </trkpt>
      <trkpt lat="46.15702" lon="7.99938">
        <ele>3772.831543</ele>
        <time>2010-09-29T07:56:07Z</time>
      </trkpt>
      <trkpt lat="46.15708" lon="7.99994">
        <ele>3808.4003906</ele>
        <time>2010-09-29T08:03:42Z</time>
      </trkpt>
      <trkpt lat="46.15717" lon="8.0003">
        <ele>3817.0517578</ele>
        <time>2010-09-29T08:05:23Z</time>
      </trkpt>
      <trkpt lat="46.15716" lon="8.00087">
        <ele>3853.1010742</ele>
        <time>2010-09-29T08:19:18Z</time>
      </trkpt>
      <trkpt lat="46.15714" lon="8.00112">
        <ele>3857.4272461</ele>
        <time>2010-09-29T08:20:33Z</time>
      </trkpt>
      <trkpt lat="46.15732" lon="8.00125">
        <ele>3868.4824219</ele>
        <time>2010-09-29T08:22:18Z</time>
      </trkpt>
      <trkpt lat="46.15725" lon="8.00149">
        <ele>3884.3442383</ele>
        <time>2010-09-29T08:24:57Z</time>
      </trkpt>
      <trkpt lat="46.1574" lon="8.0018">
        <ele>3912.222168</ele>
        <time>2010-09-29T08:32:09Z</time>
      </trkpt>
      <trkpt lat="46.15734" lon="8.00192">
        <ele>3917.9902344</ele>
        <time>2010-09-29T08:33:21Z</time>
      </trkpt>
      <trkpt lat="46.15731" lon="8.00197">
        <ele>3917.0288086</ele>
        <time>2010-09-29T08:33:54Z</time>
      </trkpt>
      <trkpt lat="46.15752" lon="8.00204">
        <ele>3932.8911133</ele>
        <time>2010-09-29T08:36:13Z</time>
      </trkpt>
      <trkpt lat="46.15747" lon="8.00226">
        <ele>3951.6362305</ele>
        <time>2010-09-29T08:40:45Z</time>
      </trkpt>
      <trkpt lat="46.15749" lon="8.00231">
        <ele>3955.4814453</ele>
        <time>2010-09-29T08:41:01Z</time>
      </trkpt>
      <trkpt lat="46.15758" lon="8.00242">
        <ele>3956.4433594</ele>
        <time>2010-09-29T08:41:27Z</time>
      </trkpt>
      <trkpt lat="46.15754" lon="8.00276">
        <ele>3971.34375</ele>
        <time>2010-09-29T08:43:49Z</time>
      </trkpt>
      <trkpt lat="46.15749" lon="8.00286">
        <ele>3975.1889648</ele>
        <time>2010-09-29T08:44:46Z</time>
      </trkpt>
      <trkpt lat="46.15747" lon="8.00286">
        <ele>3979.0341797</ele>
        <time>2010-09-29T08:46:04Z</time>
      </trkpt>
      <trkpt lat="46.15744" lon="8.00293">
        <ele>3981.9179688</ele>
        <time>2010-09-29T08:46:32Z</time>
      </trkpt>
      <trkpt lat="46.15715" lon="8.00301">
        <ele>4000.6640625</ele>
        <time>2010-09-29T08:49:53Z</time>
      </trkpt>
      <trkpt lat="46.15708" lon="8.00313">
        <ele>4004.0283203</ele>
        <time>2010-09-29T09:08:40Z</time>
      </trkpt>
      <trkpt lat="46.15737" lon="8.00298">
        <ele>3984.3212891</ele>
        <time>2010-09-29T09:12:38Z</time>
      </trkpt>
      <trkpt lat="46.15747" lon="8.00267">
        <ele>3974.7080078</ele>
        <time>2010-09-29T09:14:16Z</time>
      </trkpt>
      <trkpt lat="46.15757" lon="8.00242">
        <ele>3961.25</ele>
        <time>2010-09-29T09:15:45Z</time>
      </trkpt>
      <trkpt lat="46.1574" lon="8.00209">
        <ele>3943.465332</ele>
        <time>2010-09-29T09:19:18Z</time>
      </trkpt>
      <trkpt lat="46.15747" lon="8.00204">
        <ele>3940.581543</ele>
        <time>2010-09-29T09:19:45Z</time>
      </trkpt>
      <trkpt lat="46.15745" lon="8.002">
        <ele>3937.2167969</ele>
        <time>2010-09-29T09:20:12Z</time>
      </trkpt>
      <trkpt lat="46.15742" lon="8.00203">
        <ele>3940.581543</ele>
        <time>2010-09-29T09:20:36Z</time>
      </trkpt>
      <trkpt lat="46.15729" lon="8.00187">
        <ele>3921.8354492</ele>
        <time>2010-09-29T09:23:12Z</time>
      </trkpt>
      <trkpt lat="46.1574" lon="8.00174">
        <ele>3915.5869141</ele>
        <time>2010-09-29T09:24:08Z</time>
      </trkpt>
      <trkpt lat="46.15744" lon="8.00184">
        <ele>3912.703125</ele>
        <time>2010-09-29T09:24:35Z</time>
      </trkpt>
      <trkpt lat="46.15729" lon="8.00172">
        <ele>3907.4160156</ele>
        <time>2010-09-29T09:25:20Z</time>
      </trkpt>
      <trkpt lat="46.15735" lon="8.00171">
        <ele>3905.9741211</ele>
        <time>2010-09-29T09:25:47Z</time>
      </trkpt>
      <trkpt lat="46.15733" lon="8.00151">
        <ele>3894.4384766</ele>
        <time>2010-09-29T09:26:43Z</time>
      </trkpt>
      <trkpt lat="46.15724" lon="8.00137">
        <ele>3885.3056641</ele>
        <time>2010-09-29T09:27:39Z</time>
      </trkpt>
      <trkpt lat="46.15732" lon="8.00114">
        <ele>3874.2504883</ele>
        <time>2010-09-29T09:29:00Z</time>
      </trkpt>
      <trkpt lat="46.15717" lon="8.00104">
        <ele>3867.0405273</ele>
        <time>2010-09-29T09:29:51Z</time>
      </trkpt>
      <trkpt lat="46.15714" lon="8.00102">
        <ele>3863.1953125</ele>
        <time>2010-09-29T09:30:06Z</time>
      </trkpt>
      <trkpt lat="46.15721" lon="8.00081">
        <ele>3853.1010742</ele>
        <time>2010-09-29T09:31:14Z</time>
      </trkpt>
      <trkpt lat="46.15713" lon="8.00072">
        <ele>3848.7753906</ele>
        <time>2010-09-29T09:31:51Z</time>
      </trkpt>
      <trkpt lat="46.15712" lon="8.00069">
        <ele>3845.4106445</ele>
        <time>2010-09-29T09:32:00Z</time>
      </trkpt>
      <trkpt lat="46.15718" lon="8.00063">
        <ele>3843.4882813</ele>
        <time>2010-09-29T09:32:29Z</time>
      </trkpt>
      <trkpt lat="46.15711" lon="8.00051">
        <ele>3834.355957</ele>
        <time>2010-09-29T09:33:13Z</time>
      </trkpt>
      <trkpt lat="46.15717" lon="8.00038">
        <ele>3830.5107422</ele>
        <time>2010-09-29T09:33:55Z</time>
      </trkpt>
      <trkpt lat="46.15716" lon="8.0003">
        <ele>3823.78125</ele>
        <time>2010-09-29T09:34:23Z</time>
      </trkpt>
      <trkpt lat="46.15719" lon="8.00026">
        <ele>3821.3779297</ele>
        <time>2010-09-29T09:34:42Z</time>
      </trkpt>
      <trkpt lat="46.15714" lon="8.00017">
        <ele>3819.9355469</ele>
        <time>2010-09-29T09:35:00Z</time>
      </trkpt>
      <trkpt lat="46.15719" lon="8.00009">
        <ele>3816.0908203</ele>
        <time>2010-09-29T09:35:47Z</time>
      </trkpt>
      <trkpt lat="46.15719" lon="8.00009">
        <ele>3817.5327148</ele>
        <time>2010-09-29T09:35:49Z</time>
      </trkpt>
      <trkpt lat="46.15719" lon="8.0001">
        <ele>3814.1679688</ele>
        <time>2010-09-29T09:35:56Z</time>
      </trkpt>
      <trkpt lat="46.15708" lon="7.99969">
        <ele>3800.2290039</ele>
        <time>2010-09-29T09:37:05Z</time>
      </trkpt>
      <trkpt lat="46.15678" lon="7.99951">
        <ele>3777.6381836</ele>
        <time>2010-09-29T09:39:57Z</time>
      </trkpt>
      <trkpt lat="46.15678" lon="7.99931">
        <ele>3773.3120117</ele>
        <time>2010-09-29T09:52:11Z</time>
      </trkpt>
    </trkseg>
  </trk>
  <trk>
    <name><![CDATA[ACTIVE LOG 006]]></name>
    <trkseg>
      <trkpt lat="46.1543" lon="7.9932">
        <ele>3423.3920898</ele>
        <time>2010-09-29T11:00:48Z</time>
      </trkpt>
      <trkpt lat="46.15442" lon="7.9933">
        <ele>3770.9086914</ele>
        <time>2010-09-29T11:01:04Z</time>
      </trkpt>
      <trkpt lat="46.15441" lon="7.99336">
        <ele>3767.5444336</ele>
        <time>2010-09-29T11:01:23Z</time>
      </trkpt>
      <trkpt lat="46.15425" lon="7.99335">
        <ele>3761.2954102</ele>
        <time>2010-09-29T11:02:05Z</time>
      </trkpt>
      <trkpt lat="46.15421" lon="7.99335">
        <ele>3379.1713867</ele>
        <time>2010-09-29T11:02:17Z</time>
      </trkpt>
      <trkpt lat="46.15416" lon="7.99327">
        <ele>3388.784668</ele>
        <time>2010-09-29T11:02:35Z</time>
      </trkpt>
      <trkpt lat="46.15411" lon="7.99328">
        <ele>3394.5527344</ele>
        <time>2010-09-29T11:03:10Z</time>
      </trkpt>
      <trkpt lat="46.15407" lon="7.99329">
        <ele>3393.1108398</ele>
        <time>2010-09-29T11:03:36Z</time>
      </trkpt>
      <trkpt lat="46.15388" lon="7.99369">
        <ele>3379.6518555</ele>
        <time>2010-09-29T11:05:43Z</time>
      </trkpt>
      <trkpt lat="46.1539" lon="7.99377">
        <ele>3385.4204102</ele>
        <time>2010-09-29T11:05:57Z</time>
      </trkpt>
      <trkpt lat="46.15399" lon="7.99396">
        <ele>3371.9614258</ele>
        <time>2010-09-29T11:06:43Z</time>
      </trkpt>
      <trkpt lat="46.15393" lon="7.99435">
        <ele>3358.9838867</ele>
        <time>2010-09-29T11:07:47Z</time>
      </trkpt>
      <trkpt lat="46.15403" lon="7.99446">
        <ele>3356.5805664</ele>
        <time>2010-09-29T11:08:22Z</time>
      </trkpt>
      <trkpt lat="46.15405" lon="7.99456">
        <ele>3352.2548828</ele>
        <time>2010-09-29T11:08:54Z</time>
      </trkpt>
      <trkpt lat="46.15405" lon="7.99471">
        <ele>3349.3706055</ele>
        <time>2010-09-29T11:09:36Z</time>
      </trkpt>
      <trkpt lat="46.15405" lon="7.99475">
        <ele>3346.0058594</ele>
        <time>2010-09-29T11:09:39Z</time>
      </trkpt>
      <trkpt lat="46.15406" lon="7.99471">
        <ele>3344.0830078</ele>
        <time>2010-09-29T11:09:54Z</time>
      </trkpt>
      <trkpt lat="46.15401" lon="7.99485">
        <ele>3339.2768555</ele>
        <time>2010-09-29T11:10:21Z</time>
      </trkpt>
      <trkpt lat="46.15303" lon="7.99539">
        <ele>3292.1723633</ele>
        <time>2010-09-29T11:14:40Z</time>
      </trkpt>
      <trkpt lat="46.15278" lon="7.99539">
        <ele>3276.3100586</ele>
        <time>2010-09-29T11:16:11Z</time>
      </trkpt>
      <trkpt lat="46.1526" lon="7.99506">
        <ele>3262.371582</ele>
        <time>2010-09-29T11:16:54Z</time>
      </trkpt>
      <trkpt lat="46.15209" lon="7.99488">
        <ele>3238.3383789</ele>
        <time>2010-09-29T11:18:14Z</time>
      </trkpt>
      <trkpt lat="46.15193" lon="7.99453">
        <ele>3226.8027344</ele>
        <time>2010-09-29T11:18:47Z</time>
      </trkpt>
      <trkpt lat="46.15164" lon="7.99453">
        <ele>3223.4379883</ele>
        <time>2010-09-29T11:19:26Z</time>
      </trkpt>
      <trkpt lat="46.15129" lon="7.99423">
        <ele>3203.25</ele>
        <time>2010-09-29T11:20:18Z</time>
      </trkpt>
      <trkpt lat="46.15108" lon="7.99387">
        <ele>3190.753418</ele>
        <time>2010-09-29T11:21:00Z</time>
      </trkpt>
      <trkpt lat="46.15042" lon="7.99339">
        <ele>3166.2392578</ele>
        <time>2010-09-29T11:22:55Z</time>
      </trkpt>
      <trkpt lat="46.15036" lon="7.99343">
        <ele>3164.7973633</ele>
        <time>2010-09-29T11:26:14Z</time>
      </trkpt>
      <trkpt lat="46.15043" lon="7.99354">
        <ele>3164.7973633</ele>
        <time>2010-09-29T11:27:40Z</time>
      </trkpt>
      <trkpt lat="46.15028" lon="7.99339">
        <ele>3164.7973633</ele>
        <time>2010-09-29T11:35:02Z</time>
      </trkpt>
      <trkpt lat="46.14989" lon="7.99302">
        <ele>3150.3774414</ele>
        <time>2010-09-29T11:37:25Z</time>
      </trkpt>
      <trkpt lat="46.14967" lon="7.99262">
        <ele>3139.3227539</ele>
        <time>2010-09-29T11:37:58Z</time>
      </trkpt>
      <trkpt lat="46.14939" lon="7.99225">
        <ele>3123.4604492</ele>
        <time>2010-09-29T11:38:50Z</time>
      </trkpt>
      <trkpt lat="46.14906" lon="7.9913">
        <ele>3097.9858398</ele>
        <time>2010-09-29T11:40:29Z</time>
      </trkpt>
      <trkpt lat="46.14895" lon="7.99109">
        <ele>3088.8530273</ele>
        <time>2010-09-29T11:41:04Z</time>
      </trkpt>
      <trkpt lat="46.14894" lon="7.99083">
        <ele>3080.6821289</ele>
        <time>2010-09-29T11:41:35Z</time>
      </trkpt>
      <trkpt lat="46.14867" lon="7.99021">
        <ele>3065.3012695</ele>
        <time>2010-09-29T11:42:48Z</time>
      </trkpt>
      <trkpt lat="46.14847" lon="7.99014">
        <ele>3059.5327148</ele>
        <time>2010-09-29T11:43:29Z</time>
      </trkpt>
      <trkpt lat="46.14817" lon="7.98966">
        <ele>3053.7651367</ele>
        <time>2010-09-29T11:44:38Z</time>
      </trkpt>
      <trkpt lat="46.14793" lon="7.98888">
        <ele>3035.0195313</ele>
        <time>2010-09-29T11:46:05Z</time>
      </trkpt>
      <trkpt lat="46.14781" lon="7.98864">
        <ele>3021.5610352</ele>
        <time>2010-09-29T11:47:06Z</time>
      </trkpt>
      <trkpt lat="46.14769" lon="7.98862">
        <ele>3015.3125</ele>
        <time>2010-09-29T11:47:27Z</time>
      </trkpt>
      <trkpt lat="46.14771" lon="7.98849">
        <ele>3010.9863281</ele>
        <time>2010-09-29T11:47:42Z</time>
      </trkpt>
      <trkpt lat="46.14763" lon="7.98801">
        <ele>2987.434082</ele>
        <time>2010-09-29T11:48:57Z</time>
      </trkpt>
      <trkpt lat="46.14742" lon="7.98787">
        <ele>2972.5336914</ele>
        <time>2010-09-29T11:49:38Z</time>
      </trkpt>
      <trkpt lat="46.14753" lon="7.98706">
        <ele>2945.6166992</ele>
        <time>2010-09-29T11:51:03Z</time>
      </trkpt>
      <trkpt lat="46.14743" lon="7.98699">
        <ele>2942.2524414</ele>
        <time>2010-09-29T11:51:14Z</time>
      </trkpt>
      <trkpt lat="46.14745" lon="7.98654">
        <ele>2928.793457</ele>
        <time>2010-09-29T11:52:02Z</time>
      </trkpt>
      <trkpt lat="46.14743" lon="7.98652">
        <ele>2926.8710938</ele>
        <time>2010-09-29T11:52:07Z</time>
      </trkpt>
      <trkpt lat="46.14757" lon="7.98625">
        <ele>2921.1030273</ele>
        <time>2010-09-29T11:52:34Z</time>
      </trkpt>
      <trkpt lat="46.1474" lon="7.98518">
        <ele>2895.1474609</ele>
        <time>2010-09-29T11:54:08Z</time>
      </trkpt>
      <trkpt lat="46.14741" lon="7.98451">
        <ele>2886.4956055</ele>
        <time>2010-09-29T11:54:43Z</time>
      </trkpt>
      <trkpt lat="46.14739" lon="7.98422">
        <ele>2879.2861328</ele>
        <time>2010-09-29T11:55:05Z</time>
      </trkpt>
      <trkpt lat="46.14745" lon="7.98388">
        <ele>2874.4794922</ele>
        <time>2010-09-29T11:55:24Z</time>
      </trkpt>
      <trkpt lat="46.14741" lon="7.98356">
        <ele>2868.230957</ele>
        <time>2010-09-29T11:55:45Z</time>
      </trkpt>
      <trkpt lat="46.14742" lon="7.98327">
        <ele>2861.5014648</ele>
        <time>2010-09-29T11:56:06Z</time>
      </trkpt>
      <trkpt lat="46.1474" lon="7.98238">
        <ele>2839.8720703</ele>
        <time>2010-09-29T11:57:10Z</time>
      </trkpt>
      <trkpt lat="46.14712" lon="7.98217">
        <ele>2832.6616211</ele>
        <time>2010-09-29T11:57:53Z</time>
      </trkpt>
      <trkpt lat="46.14706" lon="7.98193">
        <ele>2830.2583008</ele>
        <time>2010-09-29T11:58:08Z</time>
      </trkpt>
      <trkpt lat="46.14699" lon="7.98034">
        <ele>2811.0322266</ele>
        <time>2010-09-29T11:59:46Z</time>
      </trkpt>
      <trkpt lat="46.14697" lon="7.98026">
        <ele>2809.1098633</ele>
        <time>2010-09-29T12:00:16Z</time>
      </trkpt>
      <trkpt lat="46.14678" lon="7.97995">
        <ele>2801.4189453</ele>
        <time>2010-09-29T12:00:44Z</time>
      </trkpt>
      <trkpt lat="46.14598" lon="7.98025">
        <ele>2787.9604492</ele>
        <time>2010-09-29T12:01:56Z</time>
      </trkpt>
      <trkpt lat="46.14467" lon="7.97992">
        <ele>2773.0605469</ele>
        <time>2010-09-29T12:03:51Z</time>
      </trkpt>
      <trkpt lat="46.14434" lon="7.9796">
        <ele>2762.9663086</ele>
        <time>2010-09-29T12:04:29Z</time>
      </trkpt>
      <trkpt lat="46.14412" lon="7.9789">
        <ele>2753.3530273</ele>
        <time>2010-09-29T12:05:15Z</time>
      </trkpt>
      <trkpt lat="46.14406" lon="7.97811">
        <ele>2738.4526367</ele>
        <time>2010-09-29T12:06:07Z</time>
      </trkpt>
      <trkpt lat="46.1438" lon="7.97805">
        <ele>2732.6845703</ele>
        <time>2010-09-29T12:06:35Z</time>
      </trkpt>
      <trkpt lat="46.14381" lon="7.97714">
        <ele>2713.9394531</ele>
        <time>2010-09-29T12:27:18Z</time>
      </trkpt>
      <trkpt lat="46.14367" lon="7.9772">
        <ele>2710.574707</ele>
        <time>2010-09-29T12:27:34Z</time>
      </trkpt>
      <trkpt lat="46.14367" lon="7.97685">
        <ele>2699.0385742</ele>
        <time>2010-09-29T12:28:30Z</time>
      </trkpt>
      <trkpt lat="46.14339" lon="7.9771">
        <ele>2690.3867188</ele>
        <time>2010-09-29T12:29:05Z</time>
      </trkpt>
      <trkpt lat="46.14337" lon="7.9766">
        <ele>2679.8125</ele>
        <time>2010-09-29T12:29:54Z</time>
      </trkpt>
      <trkpt lat="46.14321" lon="7.97655">
        <ele>2673.0830078</ele>
        <time>2010-09-29T12:30:15Z</time>
      </trkpt>
      <trkpt lat="46.14321" lon="7.97628">
        <ele>2664.9116211</ele>
        <time>2010-09-29T12:30:45Z</time>
      </trkpt>
      <trkpt lat="46.1431" lon="7.97625">
        <ele>2661.5473633</ele>
        <time>2010-09-29T12:30:57Z</time>
      </trkpt>
      <trkpt lat="46.14317" lon="7.97613">
        <ele>2657.7021484</ele>
        <time>2010-09-29T12:31:13Z</time>
      </trkpt>
      <trkpt lat="46.14304" lon="7.97608">
        <ele>2653.3759766</ele>
        <time>2010-09-29T12:31:31Z</time>
      </trkpt>
      <trkpt lat="46.14312" lon="7.97589">
        <ele>2649.5307617</ele>
        <time>2010-09-29T12:31:50Z</time>
      </trkpt>
      <trkpt lat="46.14302" lon="7.97581">
        <ele>2644.2436523</ele>
        <time>2010-09-29T12:32:06Z</time>
      </trkpt>
      <trkpt lat="46.14328" lon="7.9756">
        <ele>2637.0336914</ele>
        <time>2010-09-29T12:32:40Z</time>
      </trkpt>
      <trkpt lat="46.14291" lon="7.97526">
        <ele>2625.0170898</ele>
        <time>2010-09-29T12:33:27Z</time>
      </trkpt>
      <trkpt lat="46.14308" lon="7.97501">
        <ele>2618.7685547</ele>
        <time>2010-09-29T12:33:54Z</time>
      </trkpt>
      <trkpt lat="46.14285" lon="7.97494">
        <ele>2612.0395508</ele>
        <time>2010-09-29T12:34:21Z</time>
      </trkpt>
      <trkpt lat="46.14278" lon="7.97436">
        <ele>2601.9453125</ele>
        <time>2010-09-29T12:36:23Z</time>
      </trkpt>
      <trkpt lat="46.14286" lon="7.97432">
        <ele>2601.4648438</ele>
        <time>2010-09-29T12:36:39Z</time>
      </trkpt>
      <trkpt lat="46.14266" lon="7.97428">
        <ele>2598.5810547</ele>
        <time>2010-09-29T12:37:10Z</time>
      </trkpt>
      <trkpt lat="46.1422" lon="7.97383">
        <ele>2588.0065918</ele>
        <time>2010-09-29T12:38:13Z</time>
      </trkpt>
      <trkpt lat="46.14189" lon="7.97352">
        <ele>2577.9125977</ele>
        <time>2010-09-29T12:39:00Z</time>
      </trkpt>
      <trkpt lat="46.14112" lon="7.97219">
        <ele>2548.1115723</ele>
        <time>2010-09-29T12:41:16Z</time>
      </trkpt>
      <trkpt lat="46.14115" lon="7.97159">
        <ele>2538.9790039</ele>
        <time>2010-09-29T12:41:53Z</time>
      </trkpt>
      <trkpt lat="46.14081" lon="7.97016">
        <ele>2531.2885742</ele>
        <time>2010-09-29T12:43:36Z</time>
      </trkpt>
      <trkpt lat="46.14026" lon="7.96912">
        <ele>2521.675293</ele>
        <time>2010-09-29T12:45:14Z</time>
      </trkpt>
      <trkpt lat="46.14004" lon="7.96835">
        <ele>2510.1396484</ele>
        <time>2010-09-29T12:46:09Z</time>
      </trkpt>
      <trkpt lat="46.14016" lon="7.96832">
        <ele>2508.6977539</ele>
        <time>2010-09-29T12:47:10Z</time>
      </trkpt>
      <trkpt lat="46.14003" lon="7.96804">
        <ele>2502.4489746</ele>
        <time>2010-09-29T12:47:38Z</time>
      </trkpt>
      <trkpt lat="46.13978" lon="7.96798">
        <ele>2493.7973633</ele>
        <time>2010-09-29T12:48:16Z</time>
      </trkpt>
      <trkpt lat="46.1398" lon="7.96755">
        <ele>2484.6647949</ele>
        <time>2010-09-29T12:48:49Z</time>
      </trkpt>
    </trkseg>
  </trk>
</gpx>